createdAt,value
2022-12-18T00:01:38.568Z,-11.90
2022-12-18T00:04:20.363Z,-11.90
2022-12-18T00:06:49.635Z,-11.90
2022-12-18T00:09:18.425Z,-11.80
2022-12-18T00:11:45.714Z,-11.90
2022-12-18T00:14:14.806Z,-11.90
2022-12-18T00:16:46.190Z,-11.90
2022-12-18T00:19:14.962Z,-11.90
2022-12-18T00:21:43.393Z,-11.90
2022-12-18T00:24:12.115Z,-11.70
2022-12-18T00:26:40.339Z,-11.70
2022-12-18T00:29:17.334Z,-11.70
2022-12-18T00:31:45.568Z,-11.80
2022-12-18T00:34:14.110Z,-11.70
2022-12-18T00:36:42.130Z,-11.70
2022-12-18T00:39:12.581Z,-11.60
2022-12-18T00:41:58.768Z,-11.50
2022-12-18T00:44:26.718Z,-11.50
2022-12-18T00:46:53.623Z,-11.60
2022-12-18T00:49:21.373Z,-11.60
2022-12-18T00:51:49.291Z,-11.70
2022-12-18T00:54:17.531Z,-11.70
2022-12-18T00:56:49.362Z,-11.80
2022-12-18T00:59:18.859Z,-11.80
2022-12-18T01:01:47.039Z,-11.80
2022-12-18T01:04:14.864Z,-11.90
2022-12-18T01:06:42.273Z,-11.90
2022-12-18T01:09:09.434Z,-11.90
2022-12-18T01:11:37.423Z,-11.90
2022-12-18T01:14:05.261Z,-11.90
2022-12-18T01:16:33.585Z,-12.00
2022-12-18T01:19:02.005Z,-12.00
2022-12-18T01:21:33.980Z,-12.00
2022-12-18T01:24:03.706Z,-11.80
2022-12-18T01:26:30.683Z,-12.00
2022-12-18T01:28:58.754Z,-12.00
2022-12-18T01:31:33.902Z,-12.00
2022-12-18T01:34:07.261Z,-12.10
2022-12-18T01:36:38.134Z,-12.20
2022-12-18T01:39:15.062Z,-12.10
2022-12-18T01:42:02.090Z,-12.20
2022-12-18T01:44:58.852Z,-12.20
2022-12-18T01:47:31.398Z,-12.20
2022-12-18T01:50:02.461Z,-12.10
2022-12-18T01:52:32.997Z,-12.10
2022-12-18T01:55:01.833Z,-12.10
2022-12-18T01:57:30.078Z,-12.00
2022-12-18T02:00:08.091Z,-12.00
2022-12-18T02:02:35.467Z,-12.10
2022-12-18T02:05:04.431Z,-11.90
2022-12-18T02:07:31.240Z,-12.10
2022-12-18T02:10:32.588Z,-12.10
2022-12-18T02:13:43.085Z,-12.00
2022-12-18T02:16:45.928Z,-11.90
2022-12-18T02:19:36.566Z,-11.90
2022-12-18T02:22:12.139Z,-12.00
2022-12-18T02:25:14.273Z,-12.00
2022-12-18T02:27:47.378Z,-12.00
2022-12-18T02:30:16.223Z,-12.00
2022-12-18T02:32:51.281Z,-12.00
2022-12-18T02:35:26.222Z,-12.00
2022-12-18T02:37:57.613Z,-12.00
2022-12-18T02:40:28.439Z,-12.10
2022-12-18T02:42:55.808Z,-12.10
2022-12-18T02:45:22.756Z,-12.10
2022-12-18T02:47:51.064Z,-12.20
2022-12-18T02:50:37.874Z,-12.20
2022-12-18T02:53:32.572Z,-12.20
2022-12-18T02:56:14.843Z,-12.30
2022-12-18T02:59:25.011Z,-12.20
2022-12-18T03:02:33.156Z,-12.20
2022-12-18T03:05:51.532Z,-12.20
2022-12-18T03:08:44.614Z,-12.20
2022-12-18T03:11:14.850Z,-12.20
2022-12-18T03:13:57.384Z,-12.20
2022-12-18T03:16:30.085Z,-12.30
2022-12-18T03:19:15.952Z,-12.30
2022-12-18T03:21:54.357Z,-12.30
2022-12-18T03:24:24.072Z,-12.40
2022-12-18T03:26:58.848Z,-12.40
2022-12-18T03:29:41.755Z,-12.50
2022-12-18T03:32:34.438Z,-12.60
2022-12-18T03:35:06.404Z,-12.60
2022-12-18T03:37:33.977Z,-12.60
2022-12-18T03:40:00.959Z,-12.60
2022-12-18T03:42:46.562Z,-12.50
2022-12-18T03:45:35.828Z,-12.60
2022-12-18T03:48:18.782Z,-12.60
2022-12-18T03:50:58.996Z,-12.50
2022-12-18T03:54:01.810Z,-12.60
2022-12-18T03:56:36.570Z,-12.60
2022-12-18T03:59:06.133Z,-12.60
2022-12-18T04:01:47.204Z,-12.40
2022-12-18T04:04:17.145Z,-11.70
2022-12-18T04:06:47.710Z,-10.90
2022-12-18T04:09:15.667Z,-10.30
2022-12-18T04:11:46.365Z,-10.10
2022-12-18T04:14:17.590Z,-9.90
2022-12-18T04:16:45.236Z,-9.90
2022-12-18T04:19:12.208Z,-9.90
2022-12-18T04:21:39.036Z,-9.90
2022-12-18T04:24:06.230Z,-9.90
2022-12-18T04:26:33.135Z,-9.90
2022-12-18T04:28:59.945Z,-9.90
2022-12-18T04:31:27.278Z,-9.60
2022-12-18T04:33:54.251Z,-9.20
2022-12-18T04:36:21.701Z,-8.70
2022-12-18T04:38:48.983Z,-8.50
2022-12-18T04:41:16.259Z,-8.20
2022-12-18T04:43:44.340Z,-8.40
2022-12-18T04:46:11.402Z,-8.40
2022-12-18T04:48:39.942Z,-8.40
2022-12-18T04:51:08.023Z,-8.20
2022-12-18T04:53:35.132Z,-8.10
2022-12-18T04:56:14.954Z,-8.00
2022-12-18T04:58:45.744Z,-8.00
2022-12-18T05:01:19.030Z,-7.80
2022-12-18T05:03:47.661Z,-8.00
2022-12-18T05:06:16.647Z,-8.00
2022-12-18T05:08:43.813Z,-8.00
2022-12-18T05:11:17.556Z,-8.00
2022-12-18T05:13:45.492Z,-8.00
2022-12-18T05:16:14.542Z,-7.90
2022-12-18T05:18:43.348Z,-7.90
2022-12-18T05:21:13.890Z,-7.90
2022-12-18T05:23:42.761Z,-7.70
2022-12-18T05:26:18.719Z,-7.80
2022-12-18T05:28:47.103Z,-7.70
2022-12-18T05:31:14.977Z,-7.60
2022-12-18T05:33:43.883Z,-7.70
2022-12-18T05:36:13.674Z,-7.60
2022-12-18T05:38:42.679Z,-7.60
2022-12-18T05:41:11.472Z,-7.50
2022-12-18T05:43:42.398Z,-7.50
2022-12-18T05:46:18.604Z,-7.30
2022-12-18T05:48:46.359Z,-7.30
2022-12-18T05:51:17.726Z,-7.20
2022-12-18T05:53:45.324Z,-7.10
2022-12-18T05:56:20.176Z,-7.00
2022-12-18T05:58:48.660Z,-6.90
2022-12-18T06:01:18.784Z,-6.80
2022-12-18T06:03:46.553Z,-6.80
2022-12-18T06:06:15.872Z,-6.80
2022-12-18T06:08:46.171Z,-6.80
2022-12-18T06:11:16.841Z,-6.80
2022-12-18T06:13:43.762Z,-6.80
2022-12-18T06:16:10.774Z,-6.80
2022-12-18T06:18:40.753Z,-6.70
2022-12-18T06:21:07.682Z,-6.80
2022-12-18T06:23:35.101Z,-6.70
2022-12-18T06:26:12.268Z,-6.60
2022-12-18T06:28:39.624Z,-6.60
2022-12-18T06:31:07.844Z,-6.60
2022-12-18T06:33:36.225Z,-6.60
2022-12-18T06:36:11.191Z,-6.60
2022-12-18T06:38:41.639Z,-6.60
2022-12-18T06:41:10.750Z,-6.60
2022-12-18T06:43:38.369Z,-6.60
2022-12-18T06:46:06.902Z,-6.60
2022-12-18T06:48:34.507Z,-6.50
2022-12-18T06:51:02.247Z,-6.40
2022-12-18T06:53:30.488Z,-6.30
2022-12-18T06:56:10.377Z,-6.40
2022-12-18T06:58:39.535Z,-6.40
2022-12-18T07:01:10.252Z,-6.30
2022-12-18T07:03:41.944Z,-6.20
2022-12-18T07:06:17.426Z,-6.20
2022-12-18T07:08:46.187Z,-6.20
2022-12-18T07:11:14.555Z,-6.20
2022-12-18T07:13:43.034Z,-6.20
2022-12-18T07:16:24.837Z,-6.30
2022-12-18T07:18:53.465Z,-6.30
2022-12-18T07:21:22.540Z,-6.30
2022-12-18T07:23:49.827Z,-6.30
2022-12-18T07:26:20.736Z,-6.10
2022-12-18T07:28:48.399Z,-6.10
2022-12-18T07:31:22.159Z,-6.10
2022-12-18T07:33:50.007Z,-6.10
2022-12-18T07:36:17.337Z,-6.10
2022-12-18T07:38:44.857Z,-6.00
2022-12-18T07:41:14.707Z,-5.80
2022-12-18T07:43:43.467Z,-5.80
2022-12-18T07:46:13.470Z,-5.80
2022-12-18T07:48:42.557Z,-5.70
2022-12-18T07:51:13.833Z,-5.60
2022-12-18T07:53:41.696Z,-5.50
2022-12-18T07:56:30.112Z,-5.40
2022-12-18T07:59:00.191Z,-5.30
2022-12-18T08:01:28.115Z,-5.20
2022-12-18T08:03:55.393Z,-5.20
2022-12-18T08:06:24.465Z,-5.20
2022-12-18T08:08:55.543Z,-5.10
2022-12-18T08:11:26.702Z,-5.10
2022-12-18T08:13:54.472Z,-5.10
2022-12-18T08:16:23.719Z,-4.90
2022-12-18T08:18:54.814Z,-4.80
2022-12-18T08:21:28.739Z,-4.70
2022-12-18T08:23:59.585Z,-4.70
2022-12-18T08:26:29.293Z,-4.60
2022-12-18T08:28:57.920Z,-4.60
2022-12-18T08:31:26.412Z,-4.50
2022-12-18T08:33:55.366Z,-4.40
2022-12-18T08:36:24.521Z,-4.40
2022-12-18T08:38:53.028Z,-4.20
2022-12-18T08:41:21.351Z,-4.20
2022-12-18T08:44:07.201Z,-4.20
2022-12-18T08:46:39.721Z,-4.00
2022-12-18T08:49:08.507Z,-4.10
2022-12-18T08:51:35.504Z,-4.00
2022-12-18T08:54:03.297Z,-3.90
2022-12-18T08:56:32.104Z,-3.90
2022-12-18T08:58:58.986Z,-3.90
2022-12-18T09:01:26.195Z,-3.80
2022-12-18T09:03:53.225Z,-3.80
2022-12-18T09:06:24.315Z,-3.70
2022-12-18T09:08:51.735Z,-3.70
2022-12-18T09:11:28.265Z,-3.60
2022-12-18T09:13:56.839Z,-3.50
2022-12-18T09:16:31.655Z,-3.40
2022-12-18T09:19:00.823Z,-3.30
2022-12-18T09:21:31.582Z,-3.20
2022-12-18T09:24:00.208Z,-3.10
2022-12-18T09:26:27.963Z,-2.90
2022-12-18T09:28:55.227Z,-2.50
2022-12-18T09:31:24.649Z,-2.10
2022-12-18T09:33:52.508Z,-1.60
2022-12-18T09:36:19.846Z,-1.40
2022-12-18T09:38:46.723Z,-1.50
2022-12-18T09:41:54.525Z,-1.70
2022-12-18T09:44:45.701Z,-2.00
2022-12-18T09:47:30.590Z,-2.10
2022-12-18T09:50:10.518Z,-2.20
2022-12-18T09:52:51.439Z,-2.30
2022-12-18T09:55:37.153Z,-2.30
2022-12-18T09:58:36.654Z,-2.30
2022-12-18T10:01:08.066Z,-2.30
2022-12-18T10:03:35.619Z,-2.30
2022-12-18T10:06:39.237Z,-2.30
2022-12-18T10:09:40.508Z,-2.20
2022-12-18T10:12:21.292Z,-2.20
2022-12-18T10:15:23.309Z,-2.10
2022-12-18T10:18:01.291Z,-2.10
2022-12-18T10:20:52.601Z,-2.00
2022-12-18T10:23:45.079Z,-1.90
2022-12-18T10:26:14.994Z,-1.80
2022-12-18T10:28:43.252Z,-1.80
2022-12-18T10:31:21.221Z,-1.70
2022-12-18T10:33:54.743Z,-1.70
2022-12-18T10:36:22.231Z,-1.60
2022-12-18T10:38:50.711Z,-1.60
2022-12-18T10:41:22.884Z,-1.60
2022-12-18T10:44:12.507Z,-1.50
2022-12-18T10:46:40.136Z,-1.50
2022-12-18T10:49:20.309Z,-1.40
2022-12-18T10:51:47.313Z,-1.30
2022-12-18T10:54:22.258Z,-1.30
2022-12-18T10:56:49.610Z,-1.30
2022-12-18T10:59:20.021Z,-1.20
2022-12-18T11:01:59.022Z,-1.20
2022-12-18T11:04:29.755Z,-1.10
2022-12-18T11:07:06.068Z,-1.10
2022-12-18T11:09:35.309Z,-1.00
2022-12-18T11:12:18.693Z,-0.90
2022-12-18T11:14:49.776Z,-0.90
2022-12-18T11:17:33.684Z,-0.90
2022-12-18T11:20:19.947Z,-0.80
2022-12-18T11:23:01.628Z,-0.80
2022-12-18T11:25:35.712Z,-0.80
2022-12-18T11:28:27.442Z,-0.80
2022-12-18T11:31:33.668Z,-0.90
2022-12-18T11:34:29.565Z,-0.90
2022-12-18T11:37:01.734Z,-0.90
2022-12-18T11:40:03.318Z,-0.90
2022-12-18T11:42:47.459Z,-1.00
2022-12-18T11:45:14.249Z,-0.90
2022-12-18T11:47:57.564Z,-0.90
2022-12-18T11:51:02.820Z,-0.90
2022-12-18T11:53:31.409Z,-1.00
2022-12-18T11:56:26.083Z,-1.00
2022-12-18T11:59:23.004Z,-1.00
2022-12-18T12:02:15.786Z,-1.00
2022-12-18T12:05:05.124Z,-1.00
2022-12-18T12:07:58.791Z,-1.00
2022-12-18T12:11:18.849Z,-0.90
2022-12-18T12:14:36.813Z,-0.90
2022-12-18T12:17:45.786Z,-0.80
2022-12-18T12:20:35.929Z,-1.00
2022-12-18T12:23:26.066Z,-1.00
2022-12-18T12:26:14.268Z,-1.10
2022-12-18T12:29:21.282Z,-1.10
2022-12-18T12:31:58.814Z,-1.20
2022-12-18T12:34:59.226Z,-1.30
2022-12-18T12:37:37.045Z,-1.20
2022-12-18T12:40:26.852Z,-1.30
2022-12-18T12:43:15.561Z,-1.20
2022-12-18T12:46:09.929Z,-1.30
2022-12-18T12:48:48.690Z,-1.40
2022-12-18T12:51:20.880Z,-1.40
2022-12-18T12:53:49.873Z,-1.40
2022-12-18T12:56:20.868Z,-1.50
2022-12-18T12:59:19.520Z,-1.50
2022-12-18T13:02:27.674Z,-1.70
2022-12-18T13:05:18.882Z,-1.70
2022-12-18T13:08:23.000Z,-1.80
2022-12-18T13:11:11.374Z,-1.90
2022-12-18T13:13:57.194Z,-2.00
2022-12-18T13:16:28.479Z,-2.00
2022-12-18T13:18:59.796Z,-2.10
2022-12-18T13:21:33.337Z,-2.10
2022-12-18T13:24:26.752Z,-2.20
2022-12-18T13:26:54.753Z,-2.20
2022-12-18T13:29:57.299Z,-2.20
2022-12-18T13:32:26.703Z,-2.20
2022-12-18T13:35:19.103Z,-2.10
2022-12-18T13:37:55.629Z,-2.20
2022-12-18T13:40:51.278Z,-2.30
2022-12-18T13:43:21.183Z,-2.40
2022-12-18T13:46:23.439Z,-2.40
2022-12-18T13:49:20.102Z,-2.50
2022-12-18T13:51:54.434Z,-2.60
2022-12-18T13:54:43.272Z,-2.70
2022-12-18T13:57:35.129Z,-2.70
2022-12-18T14:00:37.749Z,-2.80
2022-12-18T14:03:22.120Z,-2.90
2022-12-18T14:05:59.134Z,-3.00
2022-12-18T14:08:38.914Z,-3.00
2022-12-18T14:11:08.108Z,-3.10
2022-12-18T14:13:43.059Z,-3.10
2022-12-18T14:16:17.681Z,-3.30
2022-12-18T14:19:04.102Z,-3.20
2022-12-18T14:21:49.012Z,-3.40
2022-12-18T14:24:22.467Z,-3.40
2022-12-18T14:26:51.438Z,-3.40
2022-12-18T14:29:30.745Z,-3.50
2022-12-18T14:32:13.353Z,-3.60
2022-12-18T14:34:52.559Z,-3.60
2022-12-18T14:37:25.909Z,-3.60
2022-12-18T14:40:07.164Z,-3.70
2022-12-18T14:42:38.251Z,-3.70
2022-12-18T14:45:53.493Z,-3.70
2022-12-18T14:48:40.746Z,-3.70
2022-12-18T14:51:11.947Z,-3.70
2022-12-18T14:53:50.395Z,-3.70
2022-12-18T14:56:26.230Z,-3.60
2022-12-18T14:59:01.554Z,-3.60
2022-12-18T15:01:38.067Z,-3.60
2022-12-18T15:04:26.750Z,-3.60
2022-12-18T15:07:17.342Z,-3.60
2022-12-18T15:10:17.941Z,-3.70
2022-12-18T15:13:03.379Z,-3.60
2022-12-18T15:15:39.045Z,-3.60
2022-12-18T15:18:08.837Z,-3.70
2022-12-18T15:20:52.382Z,-3.70
2022-12-18T15:23:37.606Z,-3.70
2022-12-18T15:26:10.918Z,-3.80
2022-12-18T15:28:56.023Z,-3.70
2022-12-18T15:31:36.314Z,-3.90
2022-12-18T15:34:14.449Z,-3.90
2022-12-18T15:36:41.629Z,-4.00
2022-12-18T15:39:14.191Z,-4.00
2022-12-18T15:41:41.522Z,-4.00
2022-12-18T15:44:29.724Z,-4.10
2022-12-18T15:47:02.154Z,-4.20
2022-12-18T15:49:29.142Z,-4.20
2022-12-18T15:52:02.337Z,-4.20
2022-12-18T15:54:48.601Z,-4.20
2022-12-18T15:57:24.542Z,-4.20
2022-12-18T15:59:54.499Z,-4.30
2022-12-18T16:02:23.709Z,-4.30
2022-12-18T16:04:53.665Z,-4.30
2022-12-18T16:07:24.589Z,-4.40
2022-12-18T16:09:52.519Z,-4.40
2022-12-18T16:12:23.798Z,-4.40
2022-12-18T16:14:51.790Z,-4.30
2022-12-18T16:17:18.867Z,-4.30
2022-12-18T16:19:46.471Z,-4.40
2022-12-18T16:22:23.868Z,-4.40
2022-12-18T16:24:53.227Z,-4.40
2022-12-18T16:27:20.686Z,-4.40
2022-12-18T16:29:48.001Z,-4.50
2022-12-18T16:32:18.967Z,-4.50
2022-12-18T16:34:46.903Z,-4.60
2022-12-18T16:37:16.325Z,-4.60
2022-12-18T16:39:43.655Z,-4.60
2022-12-18T16:42:19.569Z,-4.70
2022-12-18T16:44:48.112Z,-4.70
2022-12-18T16:47:15.953Z,-4.60
2022-12-18T16:49:45.693Z,-4.60
2022-12-18T16:52:12.984Z,-4.60
2022-12-18T16:54:39.799Z,-4.70
2022-12-18T16:57:06.771Z,-4.70
2022-12-18T16:59:36.776Z,-4.70
2022-12-18T17:02:14.304Z,-4.70
2022-12-18T17:04:42.301Z,-4.80
2022-12-18T17:07:10.192Z,-4.70
2022-12-18T17:09:38.481Z,-4.70
2022-12-18T17:12:05.810Z,-4.80
2022-12-18T17:14:33.584Z,-4.80
2022-12-18T17:17:20.736Z,-4.70
2022-12-18T17:19:47.986Z,-4.80
2022-12-18T17:22:14.822Z,-4.80
2022-12-18T17:24:41.791Z,-4.70
2022-12-18T17:27:08.868Z,-4.70
2022-12-18T17:29:35.992Z,-4.80
2022-12-18T17:32:03.008Z,-4.70
2022-12-18T17:34:30.098Z,-4.80
2022-12-18T17:36:57.922Z,-4.80
2022-12-18T17:39:24.788Z,-4.70
2022-12-18T17:41:51.722Z,-4.70
2022-12-18T17:44:18.960Z,-4.70
2022-12-18T17:46:46.829Z,-4.60
2022-12-18T17:49:14.512Z,-4.70
2022-12-18T17:51:43.011Z,-4.60
2022-12-18T17:54:10.958Z,-4.60
2022-12-18T17:56:39.457Z,-4.60
2022-12-18T17:59:07.118Z,-4.60
2022-12-18T18:01:37.325Z,-4.60
2022-12-18T18:04:07.305Z,-4.60
2022-12-18T18:06:34.879Z,-4.60
2022-12-18T18:09:05.906Z,-4.60
2022-12-18T18:11:53.793Z,-4.50
2022-12-18T18:14:22.492Z,-4.50
2022-12-18T18:16:52.284Z,-4.50
2022-12-18T18:19:23.550Z,-4.50
2022-12-18T18:21:53.213Z,-4.50
2022-12-18T18:24:23.709Z,-4.30
2022-12-18T18:26:50.837Z,-4.40
2022-12-18T18:29:30.463Z,-4.50
2022-12-18T18:31:58.533Z,-4.40
2022-12-18T18:34:30.267Z,-4.40
2022-12-18T18:37:02.006Z,-4.40
2022-12-18T18:39:29.964Z,-4.40
2022-12-18T18:41:56.836Z,-4.40
2022-12-18T18:44:25.912Z,-4.30
2022-12-18T18:46:58.272Z,-4.30
2022-12-18T18:49:27.406Z,-4.30
2022-12-18T18:51:56.821Z,-4.30
2022-12-18T18:54:24.657Z,-4.30
2022-12-18T18:59:43.855Z,-4.20
2022-12-18T19:02:16.646Z,-4.20
2022-12-18T19:04:46.084Z,-4.00
2022-12-18T19:07:29.981Z,-4.20
2022-12-18T19:10:04.507Z,-4.20
2022-12-18T19:12:52.123Z,-4.10
2022-12-18T19:15:19.112Z,-3.90
2022-12-18T19:17:47.188Z,-4.10
2022-12-18T19:20:15.101Z,-4.10
2022-12-18T19:22:42.325Z,-4.00
2022-12-18T19:25:10.473Z,-3.90
2022-12-18T19:27:39.990Z,-3.90
2022-12-18T19:30:07.847Z,-3.90
2022-12-18T19:32:34.699Z,-3.80
2022-12-18T19:35:01.640Z,-3.90
2022-12-18T19:37:29.140Z,-3.90
2022-12-18T19:39:56.561Z,-3.90
2022-12-18T19:42:28.044Z,-3.80
2022-12-18T19:44:56.359Z,-3.80
2022-12-18T19:47:23.175Z,-3.80
2022-12-18T19:49:50.420Z,-3.80
2022-12-18T19:52:17.278Z,-3.70
2022-12-18T19:54:44.246Z,-3.70
2022-12-18T19:57:12.459Z,-3.60
2022-12-18T19:59:39.426Z,-3.60
2022-12-18T20:02:14.638Z,-3.50
2022-12-18T20:04:41.593Z,-3.50
2022-12-18T20:07:08.443Z,-3.50
2022-12-18T20:09:36.808Z,-3.50
2022-12-18T20:12:04.958Z,-3.50
2022-12-18T20:14:32.487Z,-3.40
2022-12-18T20:16:59.727Z,-3.40
2022-12-18T20:19:28.427Z,-3.40
2022-12-18T20:21:58.337Z,-3.30
2022-12-18T20:24:28.889Z,-3.30
2022-12-18T20:26:59.728Z,-3.30
2022-12-18T20:29:26.698Z,-3.20
2022-12-18T20:31:53.711Z,-3.20
2022-12-18T20:34:20.532Z,-3.20
2022-12-18T20:36:47.534Z,-3.20
2022-12-18T20:39:14.593Z,-3.20
2022-12-18T20:41:42.517Z,-3.20
2022-12-18T20:44:22.774Z,-3.10
2022-12-18T20:46:56.891Z,-3.10
2022-12-18T20:49:26.467Z,-3.10
2022-12-18T20:51:56.318Z,-3.10
2022-12-18T20:54:26.042Z,-3.00
2022-12-18T20:56:53.785Z,-3.00
2022-12-18T20:59:22.930Z,-3.00
2022-12-18T21:01:49.931Z,-3.00
2022-12-18T21:04:19.254Z,-2.90
2022-12-18T21:06:55.600Z,-2.90
2022-12-18T21:09:33.261Z,-2.90
2022-12-18T21:12:29.644Z,-2.80
2022-12-18T21:15:07.860Z,-2.80
2022-12-18T21:17:42.938Z,-2.80
2022-12-18T21:20:17.610Z,-2.70
2022-12-18T21:22:45.427Z,-2.60
2022-12-18T21:25:12.242Z,-2.60
2022-12-18T21:27:39.018Z,-2.60
2022-12-18T21:30:07.175Z,-2.60
2022-12-18T21:32:33.993Z,-2.60
2022-12-18T21:35:00.870Z,-2.60
2022-12-18T21:37:27.758Z,-2.60
2022-12-18T21:39:54.587Z,-2.60
2022-12-18T21:42:40.389Z,-2.60
2022-12-18T21:45:07.906Z,-2.60
2022-12-18T21:47:34.735Z,-2.50
2022-12-18T21:50:01.650Z,-2.50
2022-12-18T21:52:32.517Z,-2.50
2022-12-18T21:55:09.172Z,-2.50
2022-12-18T21:57:39.590Z,-2.40
2022-12-18T22:00:18.202Z,-2.30
2022-12-18T22:02:45.883Z,-2.20
2022-12-18T22:05:12.825Z,-2.40
2022-12-18T22:07:40.428Z,-2.40
2022-12-18T22:10:09.102Z,-2.30
2022-12-18T22:12:41.591Z,-2.40
2022-12-18T22:15:21.218Z,-2.40
2022-12-18T22:17:50.593Z,-2.30
2022-12-18T22:20:20.211Z,-2.20
2022-12-18T22:22:48.512Z,-2.20
2022-12-18T22:25:15.437Z,-2.20
2022-12-18T22:27:42.430Z,-2.30
2022-12-18T22:30:14.381Z,-2.20
2022-12-18T22:32:41.176Z,-2.20
2022-12-18T22:35:15.421Z,-2.20
2022-12-18T22:37:42.786Z,-2.30
2022-12-18T22:40:28.977Z,-2.20
2022-12-18T22:42:56.183Z,-2.20
2022-12-18T22:45:24.655Z,-2.20
2022-12-18T22:47:51.669Z,-2.20
2022-12-18T22:50:18.654Z,-2.20
2022-12-18T22:52:45.512Z,-2.20
2022-12-18T22:55:12.405Z,-2.20
2022-12-18T22:57:40.279Z,-2.10
2022-12-18T23:00:11.987Z,-2.10
2022-12-18T23:02:39.017Z,-2.00
2022-12-18T23:05:09.179Z,-2.10
2022-12-18T23:07:36.042Z,-2.10
2022-12-18T23:10:03.044Z,-2.00
2022-12-18T23:12:29.891Z,-2.00
2022-12-18T23:14:58.090Z,-2.00
2022-12-18T23:17:25.716Z,-2.00
2022-12-18T23:19:52.505Z,-1.90
2022-12-18T23:22:19.346Z,-1.90
2022-12-18T23:24:46.943Z,-1.80
2022-12-18T23:27:14.037Z,-1.80
2022-12-18T23:29:41.187Z,-1.80
2022-12-18T23:32:08.174Z,-1.80
2022-12-18T23:34:34.950Z,-1.90
2022-12-18T23:37:03.622Z,-1.90
2022-12-18T23:39:30.742Z,-2.00
2022-12-18T23:42:00.964Z,-2.00
2022-12-18T23:44:28.497Z,-2.00
2022-12-18T23:46:55.637Z,-2.00
2022-12-18T23:49:22.994Z,-1.90
2022-12-18T23:51:50.332Z,-2.00
2022-12-18T23:54:17.235Z,-1.90
2022-12-18T23:56:49.196Z,-1.90
2022-12-18T23:59:15.957Z,-1.80
